createdAt,value
2018-12-09T00:00:43.310Z,49.55
2018-12-09T00:03:09.270Z,49.54
2018-12-09T00:05:35.247Z,49.21
2018-12-09T00:08:01.710Z,49.25
2018-12-09T00:10:28.573Z,49.28
2018-12-09T00:12:55.292Z,49.41
2018-12-09T00:15:21.233Z,49.40
2018-12-09T00:17:47.166Z,49.25
2018-12-09T00:20:13.105Z,49.63
2018-12-09T00:22:39.054Z,49.12
2018-12-09T00:25:05.008Z,49.40
2018-12-09T00:27:31.790Z,49.23
2018-12-09T00:29:58.702Z,49.48
2018-12-09T00:32:24.673Z,49.34
2018-12-09T00:34:50.636Z,49.32
2018-12-09T00:37:17.480Z,49.68
2018-12-09T00:39:43.420Z,49.29
2018-12-09T00:42:10.167Z,49.66
2018-12-09T00:44:38.084Z,49.84
2018-12-09T00:47:04.386Z,49.84
2018-12-09T00:49:30.544Z,49.74
2018-12-09T00:51:56.484Z,49.83
2018-12-09T00:54:22.423Z,50.07
2018-12-09T00:56:48.364Z,50.04
2018-12-09T00:59:14.302Z,49.94
2018-12-09T01:01:41.175Z,50.11
2018-12-09T01:04:07.113Z,50.36
2018-12-09T01:06:33.090Z,50.26
2018-12-09T01:08:59.045Z,50.25
2018-12-09T01:11:24.994Z,50.46
2018-12-09T01:13:50.937Z,50.61
2018-12-09T01:16:16.874Z,50.51
2018-12-09T01:18:43.766Z,50.74
2018-12-09T01:21:09.764Z,50.58
2018-12-09T01:23:35.698Z,50.85
2018-12-09T01:26:02.529Z,50.95
2018-12-09T01:28:28.449Z,51.13
2018-12-09T01:30:54.750Z,51.07
2018-12-09T01:33:20.715Z,51.32
2018-12-09T01:35:46.768Z,51.08
2018-12-09T01:38:12.758Z,51.44
2018-12-09T01:40:44.817Z,51.56
2018-12-09T01:43:10.774Z,51.20
2018-12-09T01:45:36.693Z,51.31
2018-12-09T01:48:02.638Z,51.50
2018-12-09T01:50:29.517Z,51.58
2018-12-09T01:52:58.354Z,51.41
2018-12-09T01:55:25.755Z,51.64
2018-12-09T01:57:52.673Z,51.43
2018-12-09T02:00:19.556Z,51.57
2018-12-09T02:02:46.366Z,51.63
2018-12-09T02:05:12.326Z,51.41
2018-12-09T02:07:38.424Z,51.56
2018-12-09T02:10:05.214Z,51.23
2018-12-09T02:12:32.318Z,51.56
2018-12-09T02:14:59.135Z,51.44
2018-12-09T02:17:26.076Z,51.38
2018-12-09T02:19:52.945Z,51.66
2018-12-09T02:22:18.896Z,51.36
2018-12-09T02:24:45.779Z,51.50
2018-12-09T02:27:12.651Z,51.87
2018-12-09T02:29:39.473Z,51.61
2018-12-09T02:32:06.795Z,51.51
2018-12-09T02:34:33.662Z,51.77
2018-12-09T02:36:59.682Z,51.79
2018-12-09T02:39:26.604Z,51.84
2018-12-09T02:41:53.507Z,51.75
2018-12-09T02:44:20.682Z,52.05
2018-12-09T02:46:46.637Z,51.74
2018-12-09T02:49:13.597Z,51.96
2018-12-09T02:51:40.528Z,51.76
2018-12-09T02:54:06.512Z,51.87
2018-12-09T02:56:32.467Z,52.37
2018-12-09T02:58:59.407Z,52.00
2018-12-09T03:01:26.276Z,51.91
2018-12-09T03:03:53.029Z,52.25
2018-12-09T03:06:19.850Z,52.20
2018-12-09T03:08:46.743Z,52.15
2018-12-09T03:11:12.692Z,52.08
2018-12-09T03:13:39.583Z,52.39
2018-12-09T03:16:06.337Z,52.13
2018-12-09T03:18:33.155Z,52.20
2018-12-09T03:20:59.097Z,52.46
2018-12-09T03:23:25.036Z,51.94
2018-12-09T03:25:52.103Z,52.20
2018-12-09T03:28:18.070Z,52.18
2018-12-09T03:30:44.027Z,52.34
2018-12-09T03:33:10.813Z,52.06
2018-12-09T03:35:38.117Z,52.53
2018-12-09T03:38:04.055Z,52.28
2018-12-09T03:40:30.090Z,52.39
2018-12-09T03:42:56.147Z,52.69
2018-12-09T03:45:22.133Z,52.30
2018-12-09T03:47:49.118Z,52.08
2018-12-09T03:50:16.021Z,52.19
2018-12-09T03:52:41.975Z,52.44
2018-12-09T03:55:07.929Z,52.07
2018-12-09T03:57:34.951Z,52.37
2018-12-09T04:00:00.898Z,52.37
2018-12-09T04:02:28.164Z,52.93
2018-12-09T04:04:54.137Z,52.36
2018-12-09T04:07:20.076Z,52.27
2018-12-09T04:09:46.034Z,52.83
2018-12-09T04:12:12.009Z,52.40
2018-12-09T04:14:38.867Z,52.72
2018-12-09T04:17:05.332Z,52.74
2018-12-09T04:19:32.178Z,52.62
2018-12-09T04:21:59.221Z,53.33
2018-12-09T04:24:26.153Z,52.94
2018-12-09T04:26:53.046Z,53.30
2018-12-09T04:29:19.350Z,52.63
2018-12-09T04:31:45.306Z,52.82
2018-12-09T04:34:12.089Z,53.21
2018-12-09T04:36:38.899Z,52.92
2018-12-09T04:39:05.952Z,52.90
2018-12-09T04:41:34.050Z,53.30
2018-12-09T04:44:00.989Z,53.13
2018-12-09T04:46:27.948Z,53.02
2018-12-09T04:48:54.831Z,53.06
2018-12-09T04:51:21.672Z,53.14
2018-12-09T04:53:48.494Z,52.70
2018-12-09T04:56:15.378Z,52.71
2018-12-09T04:58:43.354Z,52.84
2018-12-09T05:01:10.428Z,53.15
2018-12-09T05:03:37.391Z,53.72
2018-12-09T05:06:04.329Z,53.34
2018-12-09T05:08:32.119Z,53.61
2018-12-09T05:10:59.165Z,53.21
2018-12-09T05:13:26.076Z,53.29
2018-12-09T05:15:52.976Z,53.01
2018-12-09T05:18:18.936Z,53.74
2018-12-09T05:20:46.091Z,53.38
2018-12-09T05:23:12.022Z,53.36
2018-12-09T05:25:37.970Z,53.90
2018-12-09T05:28:04.763Z,53.24
2018-12-09T05:30:30.734Z,53.77
2018-12-09T05:32:56.680Z,52.76
2018-12-09T05:35:22.629Z,52.58
2018-12-09T05:37:48.588Z,52.00
2018-12-09T05:40:14.536Z,52.66
2018-12-09T05:42:40.472Z,52.57
2018-12-09T05:45:07.302Z,52.80
2018-12-09T05:47:33.308Z,52.44
2018-12-09T05:49:59.270Z,52.84
2018-12-09T05:52:25.252Z,52.41
2018-12-09T05:54:51.210Z,52.55
2018-12-09T05:57:17.198Z,52.82
2018-12-09T05:59:43.152Z,52.41
2018-12-09T06:02:15.070Z,52.74
2018-12-09T06:04:41.023Z,52.43
2018-12-09T06:07:06.982Z,52.73
2018-12-09T06:09:32.930Z,52.38
2018-12-09T06:11:59.869Z,52.71
2018-12-09T06:14:26.782Z,52.95
2018-12-09T06:16:53.555Z,52.53
2018-12-09T06:19:20.357Z,52.97
2018-12-09T06:21:47.119Z,53.51
2018-12-09T06:24:13.080Z,53.16
2018-12-09T06:26:39.027Z,52.46
2018-12-09T06:29:05.331Z,52.46
2018-12-09T06:31:32.168Z,52.18
2018-12-09T06:33:58.127Z,52.57
2018-12-09T06:36:24.089Z,52.57
2018-12-09T06:38:51.002Z,52.89
2018-12-09T06:41:17.827Z,53.03
2018-12-09T06:43:43.787Z,53.14
2018-12-09T06:46:09.763Z,53.04
2018-12-09T06:48:36.745Z,52.97
2018-12-09T06:51:02.690Z,52.59
2018-12-09T06:53:29.438Z,53.21
2018-12-09T06:55:56.886Z,53.23
2018-12-09T06:58:22.986Z,53.00
2018-12-09T07:00:49.042Z,52.76
2018-12-09T07:03:15.837Z,52.61
2018-12-09T07:05:41.787Z,52.73
2018-12-09T07:08:07.873Z,52.82
2018-12-09T07:10:33.851Z,52.89
2018-12-09T07:12:59.995Z,52.89
2018-12-09T07:15:25.939Z,52.79
2018-12-09T07:17:53.693Z,53.51
2018-12-09T07:20:19.702Z,52.95
2018-12-09T07:22:45.648Z,52.59
2018-12-09T07:25:11.584Z,53.30
2018-12-09T07:27:37.596Z,53.11
2018-12-09T07:30:04.285Z,52.72
2018-12-09T07:32:32.235Z,52.97
2018-12-09T07:34:59.450Z,53.02
2018-12-09T07:37:25.414Z,53.35
2018-12-09T07:39:51.731Z,53.44
2018-12-09T07:42:17.687Z,53.26
2018-12-09T07:44:43.916Z,53.20
2018-12-09T07:47:09.866Z,53.28
2018-12-09T07:49:36.122Z,53.01
2018-12-09T07:52:02.927Z,53.27
2018-12-09T07:54:29.676Z,52.94
2018-12-09T07:56:55.625Z,52.61
2018-12-09T07:59:21.562Z,52.49
2018-12-09T08:01:47.542Z,52.84
2018-12-09T08:04:14.464Z,52.72
2018-12-09T08:06:40.454Z,52.60
2018-12-09T08:09:07.315Z,53.11
2018-12-09T08:11:34.336Z,52.65
2018-12-09T08:14:02.242Z,53.06
2018-12-09T08:16:29.047Z,53.02
2018-12-09T08:18:54.981Z,53.25
2018-12-09T08:21:21.879Z,53.47
2018-12-09T08:23:48.652Z,52.97
2018-12-09T08:26:14.601Z,52.58
2018-12-09T08:28:40.695Z,52.76
2018-12-09T08:31:07.640Z,53.49
2018-12-09T08:33:33.570Z,52.69
2018-12-09T08:36:00.380Z,52.72
2018-12-09T08:38:26.568Z,53.14
2018-12-09T08:40:52.594Z,52.83
2018-12-09T08:43:18.609Z,53.00
2018-12-09T08:45:45.367Z,52.77
2018-12-09T08:48:12.281Z,52.87
2018-12-09T08:50:38.209Z,53.24
2018-12-09T08:53:04.146Z,52.84
2018-12-09T08:55:30.088Z,53.30
2018-12-09T08:57:57.036Z,52.98
2018-12-09T09:00:22.975Z,53.10
2018-12-09T09:02:49.715Z,53.23
2018-12-09T09:05:16.466Z,52.56
2018-12-09T09:07:44.197Z,53.53
2018-12-09T09:10:10.139Z,52.86
2018-12-09T09:12:36.084Z,52.75
2018-12-09T09:15:02.314Z,53.45
2018-12-09T09:17:29.133Z,53.02
2018-12-09T09:19:55.926Z,52.20
2018-12-09T09:22:21.863Z,53.02
2018-12-09T09:24:47.797Z,52.21
2018-12-09T09:27:13.735Z,52.41
2018-12-09T09:29:39.681Z,51.78
2018-12-09T09:32:05.748Z,52.25
2018-12-09T09:34:32.111Z,51.99
2018-12-09T09:36:58.058Z,51.84
2018-12-09T09:39:24.005Z,52.29
2018-12-09T09:41:50.996Z,52.16
2018-12-09T09:44:16.947Z,51.92
2018-12-09T09:46:42.876Z,52.45
2018-12-09T09:49:08.804Z,52.43
2018-12-09T09:51:35.605Z,53.20
2018-12-09T09:54:01.929Z,51.70
2018-12-09T09:56:28.708Z,52.95
2018-12-09T09:58:55.490Z,52.76
2018-12-09T10:01:28.260Z,52.61
2018-12-09T10:03:55.153Z,52.36
2018-12-09T10:06:22.123Z,52.51
2018-12-09T10:08:48.066Z,52.29
2018-12-09T10:11:14.097Z,52.58
2018-12-09T10:13:40.951Z,52.71
2018-12-09T10:16:07.847Z,52.80
2018-12-09T10:18:34.678Z,52.29
2018-12-09T10:21:00.621Z,52.33
2018-12-09T10:23:26.607Z,52.72
2018-12-09T10:25:52.548Z,52.90
2018-12-09T10:28:18.491Z,52.76
2018-12-09T10:30:44.427Z,52.44
2018-12-09T10:33:10.404Z,52.52
2018-12-09T10:35:36.461Z,52.18
2018-12-09T10:38:03.211Z,52.45
2018-12-09T10:40:29.167Z,52.36
2018-12-09T10:42:55.104Z,52.76
2018-12-09T10:45:21.053Z,52.67
2018-12-09T10:47:46.987Z,52.32
2018-12-09T10:50:12.945Z,52.57
2018-12-09T10:52:38.878Z,52.74
2018-12-09T10:55:05.765Z,53.24
2018-12-09T10:57:32.800Z,52.15
2018-12-09T10:59:58.762Z,52.61
2018-12-09T11:02:24.729Z,52.53
2018-12-09T11:04:50.665Z,52.66
2018-12-09T11:07:16.642Z,52.55
2018-12-09T11:09:43.270Z,52.32
2018-12-09T11:12:09.223Z,52.85
2018-12-09T11:14:35.237Z,53.20
2018-12-09T11:17:02.436Z,52.15
2018-12-09T11:19:29.189Z,52.93
2018-12-09T11:21:55.205Z,52.55
2018-12-09T11:24:21.175Z,52.77
2018-12-09T11:26:48.088Z,52.51
2018-12-09T11:29:14.019Z,52.24
2018-12-09T11:31:40.003Z,52.72
2018-12-09T11:34:06.011Z,52.01
2018-12-09T11:36:32.361Z,52.06
2018-12-09T11:38:58.334Z,52.49
2018-12-09T11:41:24.450Z,52.20
2018-12-09T11:43:50.412Z,52.28
2018-12-09T11:46:17.460Z,51.79
2018-12-09T11:48:44.323Z,52.27
2018-12-09T11:51:11.109Z,52.87
2018-12-09T11:53:37.079Z,52.47
2018-12-09T11:56:03.045Z,52.17
2018-12-09T11:58:28.967Z,52.32
2018-12-09T12:00:54.895Z,52.77
2018-12-09T12:03:20.965Z,52.46
2018-12-09T12:05:48.427Z,52.80
2018-12-09T12:08:14.373Z,52.30
2018-12-09T12:10:40.431Z,52.17
2018-12-09T12:13:06.396Z,52.66
2018-12-09T12:15:33.367Z,52.10
2018-12-09T12:18:00.129Z,52.78
2018-12-09T12:20:26.129Z,52.98
2018-12-09T12:22:52.057Z,52.25
2018-12-09T12:25:18.053Z,52.74
2018-12-09T12:27:45.019Z,52.66
2018-12-09T12:30:11.021Z,52.70
2018-12-09T12:32:37.998Z,52.63
2018-12-09T12:35:04.802Z,52.02
2018-12-09T12:37:30.782Z,52.19
2018-12-09T12:39:58.039Z,52.34
2018-12-09T12:42:24.884Z,52.85
2018-12-09T12:44:50.850Z,52.68
2018-12-09T12:47:16.826Z,52.34
2018-12-09T12:49:43.789Z,52.79
2018-12-09T12:52:09.766Z,52.80
2018-12-09T12:54:36.623Z,52.98
2018-12-09T12:57:03.450Z,52.87
2018-12-09T12:59:30.232Z,52.31
2018-12-09T13:01:56.220Z,53.05
2018-12-09T13:04:22.962Z,52.71
2018-12-09T13:06:50.224Z,52.77
2018-12-09T13:09:16.232Z,52.48
2018-12-09T13:11:43.158Z,52.75
2018-12-09T13:14:09.937Z,52.79
2018-12-09T13:16:35.870Z,52.69
2018-12-09T13:19:02.776Z,52.34
2018-12-09T13:21:28.733Z,52.31
2018-12-09T13:23:54.658Z,52.17
2018-12-09T13:26:20.606Z,52.69
2018-12-09T13:28:47.558Z,52.39
2018-12-09T13:31:14.438Z,52.69
2018-12-09T13:33:41.380Z,52.75
2018-12-09T13:36:08.277Z,52.15
2018-12-09T13:38:35.077Z,51.76
2018-12-09T13:41:02.259Z,52.07
2018-12-09T13:43:29.096Z,51.69
2018-12-09T13:45:55.041Z,51.57
2018-12-09T13:48:20.970Z,51.94
2018-12-09T13:50:47.040Z,51.98
2018-12-09T13:53:13.931Z,52.30
2018-12-09T13:55:39.864Z,52.02
2018-12-09T13:58:06.733Z,52.07
2018-12-09T14:00:32.709Z,52.19
2018-12-09T14:02:58.648Z,51.65
2018-12-09T14:05:24.594Z,51.75
2018-12-09T14:07:51.422Z,51.92
2018-12-09T14:10:17.366Z,52.14
2018-12-09T14:12:43.307Z,51.88
2018-12-09T14:15:09.267Z,51.89
2018-12-09T14:17:35.211Z,52.26
2018-12-09T14:20:01.800Z,51.77
2018-12-09T14:22:27.746Z,52.43
2018-12-09T14:24:53.691Z,52.28
2018-12-09T14:27:19.728Z,52.28
2018-12-09T14:29:45.671Z,52.82
2018-12-09T14:32:11.848Z,52.52
2018-12-09T14:34:37.791Z,52.09
2018-12-09T14:37:03.729Z,52.80
2018-12-09T14:39:29.705Z,52.28
2018-12-09T14:41:55.626Z,52.25
2018-12-09T14:44:21.560Z,52.33
2018-12-09T14:46:47.498Z,52.43
2018-12-09T14:49:13.472Z,51.73
2018-12-09T14:51:39.410Z,52.17
2018-12-09T14:54:05.431Z,52.77
2018-12-09T14:56:32.228Z,52.02
2018-12-09T14:58:58.171Z,51.92
2018-12-09T15:01:24.104Z,52.23
2018-12-09T15:03:50.038Z,52.48
2018-12-09T15:06:15.966Z,52.16
2018-12-09T15:08:41.913Z,51.96
2018-12-09T15:11:07.856Z,52.61
2018-12-09T15:13:34.789Z,51.95
2018-12-09T15:16:02.357Z,53.08
2018-12-09T15:18:28.338Z,52.30
2018-12-09T15:20:55.240Z,52.43
2018-12-09T15:23:22.049Z,53.10
2018-12-09T15:25:48.931Z,52.74
2018-12-09T15:28:14.878Z,52.48
2018-12-09T15:30:40.875Z,51.79
2018-12-09T15:33:06.910Z,52.33
2018-12-09T15:35:32.892Z,52.23
2018-12-09T15:37:58.822Z,52.38
2018-12-09T15:40:25.621Z,52.79
2018-12-09T15:42:51.564Z,52.01
2018-12-09T15:45:17.625Z,52.10
2018-12-09T15:47:44.465Z,51.94
2018-12-09T15:50:10.598Z,52.32
2018-12-09T15:52:44.770Z,51.86
2018-12-09T15:55:17.738Z,51.89
2018-12-09T15:57:43.729Z,52.10
2018-12-09T16:00:09.838Z,52.02
2018-12-09T16:02:35.788Z,51.90
2018-12-09T16:05:02.647Z,52.30
2018-12-09T16:07:28.587Z,52.03
2018-12-09T16:09:55.181Z,52.08
2018-12-09T16:12:21.147Z,51.97
2018-12-09T16:14:49.128Z,52.02
2018-12-09T16:17:16.147Z,52.05
2018-12-09T16:19:42.130Z,51.88
2018-12-09T16:22:08.093Z,52.52
2018-12-09T16:24:35.135Z,52.46
2018-12-09T16:27:03.154Z,52.46
2018-12-09T16:29:29.167Z,52.61
2018-12-09T16:31:55.105Z,52.06
2018-12-09T16:34:21.942Z,52.02
2018-12-09T16:36:48.031Z,52.53
2018-12-09T16:39:14.104Z,52.48
2018-12-09T16:41:40.936Z,52.64
2018-12-09T16:44:07.847Z,52.23
2018-12-09T16:46:34.649Z,52.71
2018-12-09T16:49:00.630Z,52.07
2018-12-09T16:51:26.628Z,52.20
2018-12-09T16:53:53.455Z,52.43
2018-12-09T16:56:19.376Z,52.40
2018-12-09T16:58:46.117Z,52.25
2018-12-09T17:01:13.038Z,52.71
2018-12-09T17:03:39.923Z,52.25
2018-12-09T17:06:06.778Z,52.04
2018-12-09T17:08:33.658Z,51.89
2018-12-09T17:11:00.465Z,52.05
2018-12-09T17:13:26.402Z,52.12
2018-12-09T17:15:53.309Z,52.53
2018-12-09T17:18:20.302Z,52.17
2018-12-09T17:20:47.231Z,52.88
2018-12-09T17:23:14.042Z,52.92
2018-12-09T17:25:40.027Z,52.78
2018-12-09T17:28:05.985Z,52.74
2018-12-09T17:30:33.563Z,53.28
2018-12-09T17:33:00.344Z,52.97
2018-12-09T17:35:26.305Z,52.92
2018-12-09T17:37:53.064Z,52.66
2018-12-09T17:40:19.005Z,52.63
2018-12-09T17:42:45.930Z,52.55
2018-12-09T17:45:11.936Z,52.45
2018-12-09T17:47:38.793Z,51.92
2018-12-09T17:50:06.519Z,52.29
2018-12-09T17:52:32.471Z,51.89
2018-12-09T17:54:58.426Z,52.18
2018-12-09T17:57:24.413Z,51.89
2018-12-09T17:59:51.206Z,51.92
2018-12-09T18:02:17.128Z,52.26
2018-12-09T18:04:43.036Z,52.07
2018-12-09T18:07:10.027Z,52.24
2018-12-09T18:09:43.056Z,52.07
2018-12-09T18:12:08.999Z,52.75
2018-12-09T18:14:34.930Z,52.69
2018-12-09T18:17:00.870Z,52.43
2018-12-09T18:19:27.647Z,52.41
2018-12-09T18:21:53.609Z,52.40
2018-12-09T18:24:19.599Z,52.79
2018-12-09T18:26:46.381Z,52.48
2018-12-09T18:29:12.326Z,52.16
2018-12-09T18:31:39.195Z,52.38
2018-12-09T18:34:05.137Z,52.37
2018-12-09T18:36:33.018Z,52.48
2018-12-09T18:38:59.194Z,52.22
2018-12-09T18:41:25.136Z,52.84
2018-12-09T18:43:51.072Z,52.15
2018-12-09T18:46:17.009Z,52.07
2018-12-09T18:48:42.930Z,52.19
2018-12-09T18:51:08.906Z,52.25
2018-12-09T18:53:35.133Z,52.66
2018-12-09T18:56:02.156Z,52.98
2018-12-09T18:58:29.097Z,52.78
2018-12-09T19:00:55.087Z,52.85
2018-12-09T19:03:21.931Z,52.45
2018-12-09T19:05:47.902Z,52.49
2018-12-09T19:08:13.822Z,52.48
2018-12-09T19:10:40.602Z,52.57
2018-12-09T19:13:08.478Z,52.88
2018-12-09T19:15:35.360Z,52.54
2018-12-09T19:18:02.030Z,52.79
2018-12-09T19:20:27.977Z,52.61
2018-12-09T19:22:53.916Z,52.68
2018-12-09T19:25:19.854Z,52.96
2018-12-09T19:27:46.826Z,52.65
2018-12-09T19:30:12.782Z,52.62
2018-12-09T19:32:39.674Z,52.98
2018-12-09T19:35:06.521Z,52.74
2018-12-09T19:37:32.463Z,52.95
2018-12-09T19:39:59.403Z,52.54
2018-12-09T19:42:26.182Z,52.72
2018-12-09T19:44:52.158Z,52.97
2018-12-09T19:47:18.101Z,52.94
2018-12-09T19:49:44.047Z,52.87
2018-12-09T19:52:09.993Z,52.80
2018-12-09T19:54:35.941Z,52.51
2018-12-09T19:57:02.210Z,52.37
2018-12-09T19:59:28.297Z,52.25
2018-12-09T20:01:55.139Z,51.61
2018-12-09T20:04:21.923Z,51.82
2018-12-09T20:06:48.739Z,52.34
2018-12-09T20:09:14.843Z,52.00
2018-12-09T20:11:40.785Z,51.91
2018-12-09T20:14:06.725Z,52.12
2018-12-09T20:16:32.669Z,52.09
2018-12-09T20:18:58.674Z,51.92
2018-12-09T20:21:24.607Z,52.41
2018-12-09T20:23:50.573Z,52.30
2018-12-09T20:26:16.751Z,52.32
2018-12-09T20:28:42.802Z,52.31
2018-12-09T20:31:08.769Z,52.67
2018-12-09T20:33:35.330Z,52.42
2018-12-09T20:36:01.943Z,52.75
2018-12-09T20:38:27.959Z,52.66
2018-12-09T20:40:54.777Z,52.49
2018-12-09T20:43:20.723Z,53.13
2018-12-09T20:45:47.449Z,52.66
2018-12-09T20:48:13.835Z,53.01
2018-12-09T20:50:40.871Z,52.76
2018-12-09T20:53:06.990Z,53.00
2018-12-09T20:55:32.930Z,52.98
2018-12-09T20:57:59.122Z,53.15
2018-12-09T21:00:25.065Z,53.23
2018-12-09T21:02:51.902Z,52.80
2018-12-09T21:05:18.791Z,52.95
2018-12-09T21:07:51.769Z,52.65
2018-12-09T21:10:17.704Z,52.92
2018-12-09T21:12:43.881Z,52.69
2018-12-09T21:15:09.827Z,52.67
2018-12-09T21:17:35.777Z,52.72
2018-12-09T21:20:02.539Z,52.79
2018-12-09T21:22:29.591Z,52.75
2018-12-09T21:24:56.424Z,53.15
2018-12-09T21:27:22.374Z,53.21
2018-12-09T21:29:48.305Z,53.33
2018-12-09T21:32:14.244Z,53.19
2018-12-09T21:34:40.175Z,53.10
2018-12-09T21:37:06.113Z,53.13
2018-12-09T21:39:33.198Z,52.77
2018-12-09T21:41:59.123Z,53.36
2018-12-09T21:44:25.077Z,53.00
2018-12-09T21:46:51.122Z,53.06
2018-12-09T21:49:17.072Z,52.79
2018-12-09T21:51:43.018Z,52.85
2018-12-09T21:54:08.968Z,52.84
2018-12-09T21:56:34.931Z,52.97
2018-12-09T21:59:00.874Z,53.23
2018-12-09T22:01:27.950Z,52.05
2018-12-09T22:03:53.896Z,52.40
2018-12-09T22:06:19.832Z,52.91
2018-12-09T22:08:45.794Z,52.96
2018-12-09T22:11:11.744Z,52.97
2018-12-09T22:13:38.600Z,52.93
2018-12-09T22:16:04.536Z,53.02
2018-12-09T22:18:30.487Z,52.37
2018-12-09T22:20:56.428Z,52.55
2018-12-09T22:23:22.360Z,52.40
2018-12-09T22:25:48.758Z,52.69
2018-12-09T22:28:14.738Z,52.51
2018-12-09T22:30:41.752Z,52.91
2018-12-09T22:33:07.693Z,52.54
2018-12-09T22:35:34.740Z,52.39
2018-12-09T22:38:00.705Z,52.60
2018-12-09T22:40:27.662Z,52.58
2018-12-09T22:42:54.544Z,52.15
2018-12-09T22:45:20.533Z,52.15
2018-12-09T22:47:46.475Z,52.45
2018-12-09T22:50:12.462Z,52.36
2018-12-09T22:52:38.435Z,52.33
2018-12-09T22:55:04.376Z,51.82
2018-12-09T22:57:30.373Z,52.02
2018-12-09T22:59:56.611Z,51.64
2018-12-09T23:02:28.895Z,52.02
2018-12-09T23:04:55.852Z,51.73
2018-12-09T23:07:28.008Z,51.83
2018-12-09T23:09:55.665Z,51.72
2018-12-09T23:12:21.662Z,52.33
2018-12-09T23:14:48.520Z,51.96
2018-12-09T23:17:15.408Z,51.72
2018-12-09T23:19:42.191Z,52.26
2018-12-09T23:22:08.122Z,52.05
2018-12-09T23:24:34.943Z,52.00
2018-12-09T23:27:00.857Z,52.07
2018-12-09T23:29:26.829Z,51.94
2018-12-09T23:31:52.747Z,52.23
2018-12-09T23:34:19.618Z,52.27
2018-12-09T23:36:45.556Z,52.20
2018-12-09T23:39:11.604Z,52.07
2018-12-09T23:41:38.490Z,51.61
2018-12-09T23:44:05.352Z,52.03
2018-12-09T23:46:32.084Z,52.66
2018-12-09T23:48:58.970Z,52.79
2018-12-09T23:51:25.009Z,52.38
2018-12-09T23:53:50.977Z,51.94
2018-12-09T23:56:17.792Z,52.20
2018-12-09T23:58:44.640Z,52.55
